createdAt,value
2023-04-09T00:03:50.089Z,10.62
2023-04-09T00:09:00.251Z,9.88
2023-04-09T00:13:59.302Z,9.80
2023-04-09T00:19:09.293Z,10.11
2023-04-09T00:24:09.094Z,9.12
2023-04-09T00:29:18.106Z,8.74
2023-04-09T00:34:27.405Z,8.87
2023-04-09T00:39:37.670Z,10.89
2023-04-09T00:44:36.079Z,10.78
2023-04-09T00:49:37.899Z,11.88
2023-04-09T00:54:46.411Z,12.01
2023-04-09T00:59:58.704Z,10.84
2023-04-09T01:04:56.878Z,15.18
2023-04-09T01:10:06.496Z,11.48
2023-04-09T01:15:15.388Z,13.87
2023-04-09T01:20:25.211Z,13.18
2023-04-09T01:25:26.449Z,12.20
2023-04-09T01:30:35.531Z,11.26
2023-04-09T01:35:45.353Z,11.52
2023-04-09T01:40:55.318Z,10.74
2023-04-09T01:46:05.011Z,11.84
2023-04-09T01:51:13.917Z,12.99
2023-04-09T01:56:22.132Z,13.30
2023-04-09T02:01:31.136Z,12.10
2023-04-09T02:06:40.206Z,11.78
2023-04-09T02:11:49.399Z,11.49
2023-04-09T02:16:59.173Z,10.67
2023-04-09T02:22:07.777Z,9.85
2023-04-09T02:27:17.520Z,12.23
2023-04-09T02:32:27.589Z,10.16
2023-04-09T02:37:29.061Z,11.58
2023-04-09T02:42:28.812Z,9.28
2023-04-09T02:47:31.226Z,10.15
2023-04-09T02:52:40.948Z,9.09
2023-04-09T02:57:49.523Z,12.41
2023-04-09T03:02:58.813Z,15.07
2023-04-09T03:08:08.146Z,15.96
2023-04-09T03:13:18.077Z,17.53
2023-04-09T03:18:26.221Z,19.85
2023-04-09T03:23:35.934Z,15.59
2023-04-09T03:28:46.126Z,15.73
2023-04-09T03:33:45.947Z,17.50
2023-04-09T03:38:55.613Z,16.59
2023-04-09T03:44:05.491Z,16.63
2023-04-09T03:49:14.733Z,17.17
2023-04-09T03:54:23.691Z,16.45
2023-04-09T03:59:34.405Z,15.82
2023-04-09T04:04:34.026Z,17.11
2023-04-09T04:09:42.502Z,18.36
2023-04-09T04:14:51.397Z,16.82
2023-04-09T04:20:01.557Z,16.99
2023-04-09T04:25:00.979Z,15.50
2023-04-09T04:30:10.573Z,14.94
2023-04-09T04:35:20.427Z,18.35
2023-04-09T04:40:28.675Z,15.59
2023-04-09T04:45:38.240Z,16.66
2023-04-09T04:50:47.379Z,13.76
2023-04-09T04:55:57.573Z,16.67
2023-04-09T05:00:56.036Z,15.08
2023-04-09T05:06:08.474Z,16.82
2023-04-09T05:11:10.440Z,16.51
2023-04-09T05:16:10.633Z,14.14
2023-04-09T05:21:10.180Z,13.29
2023-04-09T05:26:19.351Z,14.64
2023-04-09T05:31:27.765Z,12.80
2023-04-09T05:36:37.994Z,15.51
2023-04-09T05:41:36.390Z,15.28
2023-04-09T05:46:46.268Z,12.13
2023-04-09T05:51:56.333Z,12.05
2023-04-09T05:56:54.866Z,13.60
2023-04-09T06:02:03.467Z,13.24
2023-04-09T06:07:13.382Z,12.47
2023-04-09T06:12:23.244Z,12.49
2023-04-09T06:17:33.709Z,11.74
2023-04-09T06:22:32.247Z,12.60
2023-04-09T06:27:42.552Z,12.40
2023-04-09T06:32:53.147Z,12.79
2023-04-09T06:37:50.370Z,13.19
2023-04-09T06:42:59.017Z,11.88
2023-04-09T06:48:09.737Z,11.29
2023-04-09T06:53:08.374Z,12.25
2023-04-09T06:58:18.807Z,12.85
2023-04-09T07:03:18.461Z,13.37
2023-04-09T07:08:28.358Z,16.36
2023-04-09T07:18:37.655Z,16.97
2023-04-09T07:23:37.728Z,16.48
2023-04-09T07:28:37.014Z,15.53
2023-04-09T07:33:45.571Z,16.43
2023-04-09T07:38:54.643Z,16.31
2023-04-09T07:44:03.433Z,16.37
2023-04-09T07:49:13.641Z,14.31
2023-04-09T07:54:13.762Z,14.27
2023-04-09T07:59:14.208Z,14.79
2023-04-09T08:04:14.352Z,16.12
2023-04-09T08:09:15.331Z,15.56
2023-04-09T08:14:14.466Z,14.45
2023-04-09T08:19:24.576Z,16.46
2023-04-09T08:24:23.266Z,15.96
2023-04-09T08:29:33.497Z,15.27
2023-04-09T08:34:33.260Z,14.77
2023-04-09T08:39:42.716Z,17.33
2023-04-09T08:44:51.194Z,16.14
2023-04-09T08:54:59.928Z,16.26
2023-04-09T09:00:09.290Z,17.01
2023-04-09T09:05:18.626Z,17.15
2023-04-09T09:10:27.555Z,17.02
2023-04-09T09:15:36.346Z,18.83
2023-04-09T09:20:46.820Z,17.03
2023-04-09T09:41:15.592Z,16.58
2023-04-09T09:46:14.164Z,16.31
2023-04-09T09:51:22.923Z,14.44
2023-04-09T10:06:44.466Z,16.13
2023-04-09T10:11:53.168Z,15.78
2023-04-09T10:17:02.412Z,15.87
2023-04-09T10:22:12.774Z,15.08
2023-04-09T10:27:12.551Z,14.69
2023-04-09T10:32:20.953Z,15.57
2023-04-09T10:37:29.712Z,15.74
2023-04-09T10:42:39.740Z,17.28
2023-04-09T10:47:40.246Z,16.24
2023-04-09T10:52:40.722Z,13.29
2023-04-09T10:57:40.395Z,12.40
2023-04-09T11:02:49.119Z,12.01
2023-04-09T11:07:59.139Z,10.64
2023-04-09T11:12:57.975Z,11.53
2023-04-09T11:18:07.809Z,11.97
2023-04-09T11:23:16.912Z,13.39
2023-04-09T11:28:26.785Z,9.15
2023-04-09T11:33:35.791Z,13.14
2023-04-09T11:38:45.097Z,14.76
2023-04-09T11:43:53.677Z,10.66
2023-04-09T11:49:03.372Z,13.04
2023-04-09T11:54:13.409Z,10.42
2023-04-09T11:59:13.297Z,10.73
2023-04-09T12:04:22.591Z,11.91
2023-04-09T12:09:32.640Z,11.56
2023-04-09T12:14:32.474Z,10.20
2023-04-09T12:19:40.947Z,11.54
2023-04-09T12:24:49.569Z,12.71
2023-04-09T12:29:58.626Z,9.29
2023-04-09T12:35:10.038Z,9.92
2023-04-09T12:40:08.453Z,12.16
2023-04-09T12:45:18.176Z,8.47
2023-04-09T12:50:26.607Z,10.86
2023-04-09T12:55:37.128Z,10.77
2023-04-09T13:00:36.952Z,10.26
2023-04-09T13:05:47.280Z,10.01
2023-04-09T13:10:45.909Z,8.51
2023-04-09T13:15:54.834Z,10.61
2023-04-09T13:21:07.288Z,7.79
2023-04-09T13:26:06.771Z,7.25
2023-04-09T13:31:22.199Z,7.73
2023-04-09T13:36:21.550Z,7.81
2023-04-09T13:41:31.927Z,7.27
2023-04-09T13:46:41.151Z,8.45
2023-04-09T13:51:39.303Z,9.96
2023-04-09T13:56:49.501Z,9.39
2023-04-09T14:01:48.997Z,10.37
2023-04-09T14:06:58.723Z,9.35
2023-04-09T14:12:09.545Z,10.92
2023-04-09T14:17:09.789Z,10.26
2023-04-09T14:37:36.730Z,10.44
2023-04-09T14:42:36.762Z,9.28
2023-04-09T14:57:37.559Z,5.82
2023-04-09T15:28:07.037Z,6.44
2023-04-09T15:33:17.169Z,7.45
2023-04-09T15:38:16.013Z,7.93
2023-04-09T15:53:43.855Z,6.69
2023-04-09T15:58:54.724Z,7.06
2023-04-09T16:03:53.568Z,5.69
2023-04-09T16:09:04.393Z,7.59
2023-04-09T16:19:14.045Z,7.80
2023-04-09T16:24:24.050Z,8.46
2023-04-09T16:29:23.200Z,6.62
2023-04-09T16:34:31.580Z,7.00
2023-04-09T16:39:40.445Z,7.97
2023-04-09T16:44:49.748Z,7.35
2023-04-09T16:49:58.658Z,8.09
2023-04-09T16:55:07.208Z,7.12
2023-04-09T17:00:09.243Z,7.81
2023-04-09T17:05:11.232Z,8.39
2023-04-09T17:10:23.519Z,9.52
2023-04-09T17:15:23.341Z,8.00
2023-04-09T17:20:32.710Z,7.58
2023-04-09T17:25:43.255Z,6.83
2023-04-09T17:30:38.551Z,7.68
2023-04-09T17:35:50.139Z,6.25
2023-04-09T17:40:51.165Z,6.96
2023-04-09T17:45:52.942Z,7.56
2023-04-09T17:50:53.798Z,7.64
2023-04-09T17:55:56.172Z,6.87
2023-04-09T18:00:53.224Z,7.96
2023-04-09T18:06:02.834Z,7.59
2023-04-09T18:11:13.475Z,7.61
2023-04-09T18:16:20.868Z,7.55
2023-04-09T18:21:30.280Z,9.02
2023-04-09T18:26:39.005Z,7.27
2023-04-09T18:31:48.338Z,6.83
2023-04-09T18:36:57.927Z,8.20
2023-04-09T18:42:06.748Z,7.91
2023-04-09T18:47:16.000Z,8.34
2023-04-09T18:52:25.689Z,8.19
2023-04-09T18:57:34.345Z,8.23
2023-04-09T19:02:44.240Z,8.29
2023-04-09T19:07:52.788Z,7.87
2023-04-09T19:13:01.739Z,9.39
2023-04-09T19:18:10.442Z,8.49
2023-04-09T19:23:19.432Z,8.68
2023-04-09T19:28:28.181Z,7.49
2023-04-09T19:33:37.223Z,8.90
2023-04-09T19:38:45.454Z,7.64
2023-04-09T19:43:54.785Z,9.56
2023-04-09T19:49:03.698Z,9.13
2023-04-09T19:54:13.142Z,8.26
2023-04-09T19:59:21.851Z,7.63
2023-04-09T20:04:31.098Z,9.51
2023-04-09T20:09:39.589Z,7.42
2023-04-09T20:14:48.750Z,8.74
2023-04-09T20:19:57.298Z,8.87
2023-04-09T20:25:06.211Z,8.76
2023-04-09T20:30:14.715Z,8.65
2023-04-09T20:35:23.597Z,9.06
2023-04-09T20:40:32.763Z,8.93
2023-04-09T20:45:41.955Z,7.69
2023-04-09T20:50:50.471Z,10.94
2023-04-09T20:55:59.774Z,9.68
2023-04-09T21:01:09.179Z,9.08
2023-04-09T21:06:18.480Z,12.31
2023-04-09T21:11:27.364Z,11.47
2023-04-09T21:16:36.315Z,9.22
2023-04-09T21:21:44.835Z,11.59
2023-04-09T21:26:53.957Z,10.81
2023-04-09T21:32:08.852Z,11.12
2023-04-09T21:37:07.522Z,10.19
2023-04-09T21:42:15.941Z,10.53
2023-04-09T21:47:25.020Z,11.09
2023-04-09T21:52:33.561Z,10.24
2023-04-09T21:57:42.479Z,9.79
2023-04-09T22:02:52.148Z,11.21
2023-04-09T22:08:01.376Z,11.81
2023-04-09T22:13:10.068Z,10.59
2023-04-09T22:18:19.062Z,9.81
2023-04-09T22:23:27.526Z,10.78
2023-04-09T22:28:36.440Z,8.95
2023-04-09T22:33:44.870Z,14.59
2023-04-09T22:38:54.016Z,8.89
2023-04-09T22:44:02.464Z,9.95
2023-04-09T22:49:11.903Z,8.01
2023-04-09T22:54:20.215Z,10.22
2023-04-09T23:04:37.372Z,10.55
2023-04-09T23:09:49.045Z,9.62
2023-04-09T23:14:49.553Z,9.65
2023-04-09T23:19:57.018Z,9.17
2023-04-09T23:25:05.497Z,8.23
2023-04-09T23:30:14.491Z,12.01
2023-04-09T23:35:23.631Z,13.11
2023-04-09T23:40:32.193Z,18.71
2023-04-09T23:45:41.108Z,15.99
2023-04-09T23:50:50.321Z,13.19
2023-04-09T23:55:58.939Z,9.39
